Disclaimer

Please do not use the information listed here in-flight or in-navigation, as they are not provided to us by the airports but are provided by volunteers, so they might be outdated.

Search


Regions


Airport information page

Radio informations:
MARRAKECH TWR - 118.7 MHz
MARRAKECH APP - 119.7 MHz

Airport informations:
Latitude: 31° 36' 24.79" N
Longitude: 008° 02' 10.68" W
Elevation: 1545 feet - 471 meters
Operating hours: 24 hour operations
Operating agency: Military-civil joint use airport
Timezone: UTC 0
Fuel: Jet A1, without icing nhibitor.

100/130 MIL Spec, low lead, aviation gasoline (BLUE)

Runway information:
10/28 - 10170 x 148 feet< - >3100 x 45 meters

Recent METARs:
GMMX 160830Z 09004KT CAVOK 10/07 Q1028 NOSIG
GMMX 160900Z VRB02KT 9000 NSC 13/08 Q1028 NOSIG
GMMX 160930Z 00000KT CAVOK 17/07 Q1028 NOSIG

Airport on the map: